sensor_id;sensor_type;location;lat;lon;timestamp;pressure;altitude;pressure_sealevel;temperature;humidity
4836;BME280;66719;51.226;6.902;2023-07-08T00:01:15;100869.81;;;22.54;68.77
4836;BME280;66719;51.226;6.902;2023-07-08T00:03:43;100866.50;;;22.50;67.41
4836;BME280;66719;51.226;6.902;2023-07-08T00:06:14;100874.69;;;22.47;67.63
4836;BME280;66719;51.226;6.902;2023-07-08T00:08:42;100870.53;;;22.43;66.68
4836;BME280;66719;51.226;6.902;2023-07-08T00:11:13;100872.53;;;22.40;66.00
4836;BME280;66719;51.226;6.902;2023-07-08T00:13:40;100862.63;;;22.42;67.14
4836;BME280;66719;51.226;6.902;2023-07-08T00:16:12;100861.84;;;22.40;67.46
4836;BME280;66719;51.226;6.902;2023-07-08T00:18:39;100863.47;;;22.42;68.39
4836;BME280;66719;51.226;6.902;2023-07-08T00:21:11;100864.22;;;22.44;68.36
4836;BME280;66719;51.226;6.902;2023-07-08T00:23:46;100858.78;;;22.46;67.83
4836;BME280;66719;51.226;6.902;2023-07-08T00:26:23;100859.75;;;22.45;68.72
4836;BME280;66719;51.226;6.902;2023-07-08T00:28:51;100859.84;;;22.43;67.66
4836;BME280;66719;51.226;6.902;2023-07-08T00:31:18;100855.47;;;22.42;69.33
4836;BME280;66719;51.226;6.902;2023-07-08T00:33:51;100854.50;;;22.43;69.10
4836;BME280;66719;51.226;6.902;2023-07-08T00:36:19;100856.13;;;22.46;69.29
4836;BME280;66719;51.226;6.902;2023-07-08T00:38:46;100858.88;;;22.44;70.47
4836;BME280;66719;51.226;6.902;2023-07-08T00:41:35;100854.16;;;22.35;68.81
4836;BME280;66719;51.226;6.902;2023-07-08T00:44:04;100853.09;;;22.38;69.19
4836;BME280;66719;51.226;6.902;2023-07-08T00:46:38;100856.50;;;22.40;70.52
4836;BME280;66719;51.226;6.902;2023-07-08T00:51:35;100855.75;;;22.38;70.74
4836;BME280;66719;51.226;6.902;2023-07-08T00:54:26;100857.78;;;22.34;69.37
4836;BME280;66719;51.226;6.902;2023-07-08T00:56:54;100857.78;;;22.34;70.06
4836;BME280;66719;51.226;6.902;2023-07-08T00:59:28;100854.53;;;22.29;71.97
4836;BME280;66719;51.226;6.902;2023-07-08T01:01:58;100853.22;;;22.22;71.49
4836;BME280;66719;51.226;6.902;2023-07-08T01:07:10;100851.72;;;22.04;68.28
4836;BME280;66719;51.226;6.902;2023-07-08T01:09:41;100846.69;;;21.99;69.49
4836;BME280;66719;51.226;6.902;2023-07-08T01:12:14;100848.59;;;21.97;70.33
4836;BME280;66719;51.226;6.902;2023-07-08T01:14:43;100848.91;;;21.92;71.27
4836;BME280;66719;51.226;6.902;2023-07-08T01:17:10;100849.84;;;21.91;71.93
4836;BME280;66719;51.226;6.902;2023-07-08T01:19:46;100846.03;;;21.95;72.12
4836;BME280;66719;51.226;6.902;2023-07-08T01:22:13;100845.91;;;21.97;73.88
4836;BME280;66719;51.226;6.902;2023-07-08T01:24:44;100841.94;;;21.90;74.33
4836;BME280;66719;51.226;6.902;2023-07-08T01:27:14;100845.38;;;21.92;75.08
4836;BME280;66719;51.226;6.902;2023-07-08T01:29:41;100837.00;;;21.84;77.39
4836;BME280;66719;51.226;6.902;2023-07-08T01:32:11;100839.88;;;21.81;79.00
4836;BME280;66719;51.226;6.902;2023-07-08T01:34:40;100841.09;;;21.75;79.93
4836;BME280;66719;51.226;6.902;2023-07-08T01:37:09;100846.81;;;21.69;80.72
4836;BME280;66719;51.226;6.902;2023-07-08T01:39:37;100842.16;;;21.58;79.38
4836;BME280;66719;51.226;6.902;2023-07-08T01:42:03;100832.72;;;21.53;79.79
4836;BME280;66719;51.226;6.902;2023-07-08T01:44:33;100831.88;;;21.52;80.22
4836;BME280;66719;51.226;6.902;2023-07-08T01:47:07;100828.66;;;21.47;80.20
4836;BME280;66719;51.226;6.902;2023-07-08T01:49:39;100831.03;;;21.52;80.65
4836;BME280;66719;51.226;6.902;2023-07-08T01:52:07;100831.72;;;21.55;80.85
4836;BME280;66719;51.226;6.902;2023-07-08T01:54:34;100830.16;;;21.51;81.75
4836;BME280;66719;51.226;6.902;2023-07-08T01:57:00;100831.97;;;21.51;83.84
4836;BME280;66719;51.226;6.902;2023-07-08T01:59:28;100829.25;;;21.38;83.02
4836;BME280;66719;51.226;6.902;2023-07-08T02:01:55;100822.66;;;21.29;85.79
4836;BME280;66719;51.226;6.902;2023-07-08T02:04:24;100825.13;;;21.32;87.74
4836;BME280;66719;51.226;6.902;2023-07-08T02:06:55;100823.53;;;21.30;88.03
4836;BME280;66719;51.226;6.902;2023-07-08T02:09:23;100820.25;;;21.25;89.57
4836;BME280;66719;51.226;6.902;2023-07-08T02:11:52;100819.00;;;21.16;90.58
4836;BME280;66719;51.226;6.902;2023-07-08T02:14:19;100821.56;;;21.17;93.42
4836;BME280;66719;51.226;6.902;2023-07-08T02:16:45;100818.91;;;21.17;95.98
4836;BME280;66719;51.226;6.902;2023-07-08T02:19:12;100824.31;;;21.16;97.69
4836;BME280;66719;51.226;6.902;2023-07-08T02:21:39;100815.47;;;21.15;99.88
4836;BME280;66719;51.226;6.902;2023-07-08T02:24:06;100819.19;;;21.13;100.00
4836;BME280;66719;51.226;6.902;2023-07-08T02:26:32;100813.75;;;21.14;100.00
4836;BME280;66719;51.226;6.902;2023-07-08T02:29:00;100814.03;;;21.10;100.00
4836;BME280;66719;51.226;6.902;2023-07-08T02:31:27;100804.44;;;21.07;100.00
4836;BME280;66719;51.226;6.902;2023-07-08T02:33:54;100804.78;;;21.01;100.00
4836;BME280;66719;51.226;6.902;2023-07-08T02:36:21;100811.63;;;20.91;100.00
4836;BME280;66719;51.226;6.902;2023-07-08T02:38:47;100805.75;;;20.86;100.00
4836;BME280;66719;51.226;6.902;2023-07-08T02:41:14;100812.09;;;20.83;100.00
4836;BME280;66719;51.226;6.902;2023-07-08T02:43:40;100814.19;;;20.78;100.00
4836;BME280;66719;51.226;6.902;2023-07-08T02:46:07;100809.97;;;20.60;100.00
4836;BME280;66719;51.226;6.902;2023-07-08T02:48:34;100812.22;;;20.52;100.00
4836;BME280;66719;51.226;6.902;2023-07-08T02:51:05;100816.47;;;20.54;100.00
4836;BME280;66719;51.226;6.902;2023-07-08T02:53:32;100804.69;;;20.58;100.00
4836;BME280;66719;51.226;6.902;2023-07-08T02:55:58;100811.47;;;20.64;100.00
4836;BME280;66719;51.226;6.902;2023-07-08T02:58:24;100811.56;;;20.63;100.00
4836;BME280;66719;51.226;6.902;2023-07-08T03:00:56;100817.66;;;20.65;100.00
4836;BME280;66719;51.226;6.902;2023-07-08T03:03:26;100812.78;;;20.57;100.00
4836;BME280;66719;51.226;6.902;2023-07-08T03:06:00;100817.44;;;20.53;100.00
4836;BME280;66719;51.226;6.902;2023-07-08T03:08:28;100819.41;;;20.50;100.00
4836;BME280;66719;51.226;6.902;2023-07-08T03:10:58;100811.50;;;20.48;100.00
4836;BME280;66719;51.226;6.902;2023-07-08T03:13:27;100806.47;;;20.44;100.00
4836;BME280;66719;51.226;6.902;2023-07-08T03:15:54;100806.53;;;20.42;100.00
4836;BME280;66719;51.226;6.902;2023-07-08T03:18:23;100806.38;;;20.45;100.00
4836;BME280;66719;51.226;6.902;2023-07-08T03:20:50;100810.00;;;20.44;100.00
4836;BME280;66719;51.226;6.902;2023-07-08T03:23:17;100804.78;;;20.41;100.00
4836;BME280;66719;51.226;6.902;2023-07-08T03:25:43;100802.75;;;20.30;100.00
4836;BME280;66719;51.226;6.902;2023-07-08T03:28:10;100814.63;;;20.25;100.00
4836;BME280;66719;51.226;6.902;2023-07-08T03:30:42;100816.50;;;20.23;100.00
4836;BME280;66719;51.226;6.902;2023-07-08T03:33:09;100815.06;;;20.17;100.00
4836;BME280;66719;51.226;6.902;2023-07-08T03:35:37;100808.88;;;20.17;100.00
4836;BME280;66719;51.226;6.902;2023-07-08T03:38:05;100817.03;;;20.14;100.00
4836;BME280;66719;51.226;6.902;2023-07-08T03:40:31;100812.84;;;20.10;100.00
4836;BME280;66719;51.226;6.902;2023-07-08T03:42:58;100814.75;;;20.08;100.00
4836;BME280;66719;51.226;6.902;2023-07-08T03:45:25;100816.03;;;20.00;100.00
4836;BME280;66719;51.226;6.902;2023-07-08T03:47:52;100817.97;;;19.97;100.00
4836;BME280;66719;51.226;6.902;2023-07-08T03:50:22;100809.13;;;19.96;100.00
4836;BME280;66719;51.226;6.902;2023-07-08T03:52:50;100813.25;;;19.86;100.00
4836;BME280;66719;51.226;6.902;2023-07-08T03:55:18;100808.91;;;19.85;100.00
4836;BME280;66719;51.226;6.902;2023-07-08T03:57:44;100817.41;;;19.92;100.00
4836;BME280;66719;51.226;6.902;2023-07-08T04:00:12;100812.06;;;19.92;100.00
4836;BME280;66719;51.226;6.902;2023-07-08T04:02:42;100810.38;;;19.91;100.00
4836;BME280;66719;51.226;6.902;2023-07-08T04:05:16;100814.47;;;19.96;100.00
4836;BME280;66719;51.226;6.902;2023-07-08T04:07:43;100810.19;;;19.94;100.00
4836;BME280;66719;51.226;6.902;2023-07-08T04:10:10;100820.56;;;19.98;100.00
4836;BME280;66719;51.226;6.902;2023-07-08T04:12:37;100815.94;;;20.02;100.00
4836;BME280;66719;51.226;6.902;2023-07-08T04:15:06;100828.28;;;20.03;100.00
4836;BME280;66719;51.226;6.902;2023-07-08T04:17:43;100827.00;;;19.94;100.00
4836;BME280;66719;51.226;6.902;2023-07-08T04:20:14;100836.75;;;19.94;100.00
4836;BME280;66719;51.226;6.902;2023-07-08T04:22:43;100841.13;;;19.95;100.00
4836;BME280;66719;51.226;6.902;2023-07-08T04:25:11;100838.38;;;19.96;100.00
4836;BME280;66719;51.226;6.902;2023-07-08T04:27:38;100838.06;;;20.02;100.00
4836;BME280;66719;51.226;6.902;2023-07-08T04:30:06;100837.38;;;19.99;100.00
4836;BME280;66719;51.226;6.902;2023-07-08T04:32:33;100829.41;;;19.99;100.00
4836;BME280;66719;51.226;6.902;2023-07-08T04:35:00;100841.03;;;19.96;100.00
4836;BME280;66719;51.226;6.902;2023-07-08T04:37:26;100842.00;;;19.95;100.00
4836;BME280;66719;51.226;6.902;2023-07-08T04:39:53;100841.03;;;19.96;100.00
4836;BME280;66719;51.226;6.902;2023-07-08T04:42:19;100845.69;;;19.93;100.00
4836;BME280;66719;51.226;6.902;2023-07-08T04:44:46;100842.31;;;19.89;100.00
4836;BME280;66719;51.226;6.902;2023-07-08T04:47:13;100835.16;;;19.91;100.00
4836;BME280;66719;51.226;6.902;2023-07-08T04:49:40;100832.56;;;19.90;100.00
4836;BME280;66719;51.226;6.902;2023-07-08T04:52:10;100836.75;;;19.94;100.00
4836;BME280;66719;51.226;6.902;2023-07-08T04:54:36;100834.88;;;19.96;100.00
4836;BME280;66719;51.226;6.902;2023-07-08T04:57:03;100837.28;;;20.00;100.00
4836;BME280;66719;51.226;6.902;2023-07-08T04:59:30;100838.25;;;19.99;100.00
4836;BME280;66719;51.226;6.902;2023-07-08T05:02:01;100836.75;;;19.94;100.00
4836;BME280;66719;51.226;6.902;2023-07-08T05:04:28;100836.66;;;19.95;100.00
4836;BME280;66719;51.226;6.902;2023-07-08T05:06:55;100833.44;;;19.90;100.00
4836;BME280;66719;51.226;6.902;2023-07-08T05:09:22;100837.91;;;19.90;100.00
4836;BME280;66719;51.226;6.902;2023-07-08T05:11:52;100832.91;;;19.84;100.00
4836;BME280;66719;51.226;6.902;2023-07-08T05:14:21;100832.72;;;19.87;100.00
4836;BME280;66719;51.226;6.902;2023-07-08T05:16:47;100828.19;;;19.89;100.00
4836;BME280;66719;51.226;6.902;2023-07-08T05:19:14;100829.81;;;19.91;100.00
4836;BME280;66719;51.226;6.902;2023-07-08T05:21:41;100836.66;;;19.95;100.00
4836;BME280;66719;51.226;6.902;2023-07-08T05:24:09;100836.44;;;20.00;100.00
4836;BME280;66719;51.226;6.902;2023-07-08T05:26:35;100846.03;;;20.02;100.00
4836;BME280;66719;51.226;6.902;2023-07-08T05:29:02;100843.28;;;20.04;100.00
4836;BME280;66719;51.226;6.902;2023-07-08T05:31:29;100838.28;;;20.14;100.00
4836;BME280;66719;51.226;6.902;2023-07-08T05:33:58;100840.53;;;20.21;100.00
4836;BME280;66719;51.226;6.902;2023-07-08T05:36:25;100839.34;;;20.27;100.00
4836;BME280;66719;51.226;6.902;2023-07-08T05:38:51;100837.25;;;20.32;100.00
4836;BME280;66719;51.226;6.902;2023-07-08T05:41:18;100834.44;;;20.35;100.00
4836;BME280;66719;51.226;6.902;2023-07-08T05:43:44;100837.66;;;20.40;100.00
4836;BME280;66719;51.226;6.902;2023-07-08T05:46:13;100833.09;;;20.44;100.00
4836;BME280;66719;51.226;6.902;2023-07-08T05:48:40;100832.78;;;20.48;100.00
4836;BME280;66719;51.226;6.902;2023-07-08T05:51:06;100836.06;;;20.53;100.00
4836;BME280;66719;51.226;6.902;2023-07-08T05:53:33;100829.44;;;20.60;100.00
4836;BME280;66719;51.226;6.902;2023-07-08T05:56:02;100829.91;;;20.67;100.00
4836;BME280;66719;51.226;6.902;2023-07-08T05:58:29;100821.78;;;20.70;100.00
4836;BME280;66719;51.226;6.902;2023-07-08T06:00:56;100824.44;;;20.70;100.00
4836;BME280;66719;51.226;6.902;2023-07-08T06:03:24;100823.47;;;20.71;100.00
4836;BME280;66719;51.226;6.902;2023-07-08T06:05:52;100818.25;;;20.70;100.00
4836;BME280;66719;51.226;6.902;2023-07-08T06:08:19;100821.88;;;20.69;100.00
4836;BME280;66719;51.226;6.902;2023-07-08T06:10:46;100829.75;;;20.70;100.00
4836;BME280;66719;51.226;6.902;2023-07-08T06:13:13;100836.69;;;20.73;100.00
4836;BME280;66719;51.226;6.902;2023-07-08T06:15:41;100838.41;;;20.74;100.00
4836;BME280;66719;51.226;6.902;2023-07-08T06:18:08;100840.97;;;20.75;100.00
4836;BME280;66719;51.226;6.902;2023-07-08T06:20:35;100832.91;;;20.77;100.00
4836;BME280;66719;51.226;6.902;2023-07-08T06:23:01;100842.53;;;20.79;100.00
4836;BME280;66719;51.226;6.902;2023-07-08T06:25:29;100843.28;;;20.81;100.00
4836;BME280;66719;51.226;6.902;2023-07-08T06:27:55;100843.03;;;20.86;100.00
4836;BME280;66719;51.226;6.902;2023-07-08T06:30:23;100846.44;;;20.88;100.00
4836;BME280;66719;51.226;6.902;2023-07-08T06:32:50;100835.59;;;20.91;100.00
4836;BME280;66719;51.226;6.902;2023-07-08T06:35:17;100842.47;;;20.95;100.00
4836;BME280;66719;51.226;6.902;2023-07-08T06:37:44;100836.00;;;20.99;100.00
4836;BME280;66719;51.226;6.902;2023-07-08T06:40:11;100835.03;;;21.00;100.00
4836;BME280;66719;51.226;6.902;2023-07-08T06:42:37;100845.53;;;21.03;100.00
4836;BME280;66719;51.226;6.902;2023-07-08T06:45:04;100841.91;;;21.04;100.00
4836;BME280;66719;51.226;6.902;2023-07-08T06:47:31;100834.69;;;21.06;100.00
4836;BME280;66719;51.226;6.902;2023-07-08T06:49:57;100839.91;;;21.08;100.00
4836;BME280;66719;51.226;6.902;2023-07-08T06:52:25;100837.94;;;21.11;100.00
4836;BME280;66719;51.226;6.902;2023-07-08T06:54:52;100833.38;;;21.13;100.00
4836;BME280;66719;51.226;6.902;2023-07-08T06:57:18;100827.75;;;21.18;100.00
4836;BME280;66719;51.226;6.902;2023-07-08T06:59:45;100818.78;;;21.19;100.00
4836;BME280;66719;51.226;6.902;2023-07-08T07:02:11;100819.22;;;21.27;99.76
4836;BME280;66719;51.226;6.902;2023-07-08T07:04:39;100829.41;;;21.35;95.78
4836;BME280;66719;51.226;6.902;2023-07-08T07:07:06;100839.03;;;21.66;86.38
4836;BME280;66719;51.226;6.902;2023-07-08T07:09:32;100836.84;;;21.72;86.28
4836;BME280;66719;51.226;6.902;2023-07-08T07:11:59;100829.59;;;21.75;86.76
4836;BME280;66719;51.226;6.902;2023-07-08T07:14:26;100832.25;;;21.75;88.17
4836;BME280;66719;51.226;6.902;2023-07-08T07:16:55;100839.00;;;21.80;84.62
4836;BME280;66719;51.226;6.902;2023-07-08T07:19:25;100829.91;;;21.97;80.59
4836;BME280;66719;51.226;6.902;2023-07-08T07:21:51;100831.66;;;21.98;79.48
4836;BME280;66719;51.226;6.902;2023-07-08T07:24:18;100833.34;;;22.13;74.12
4836;BME280;66719;51.226;6.902;2023-07-08T07:26:45;100839.47;;;22.42;71.24
4836;BME280;66719;51.226;6.902;2023-07-08T07:29:15;100849.34;;;22.40;71.83
4836;BME280;66719;51.226;6.902;2023-07-08T07:31:42;100839.94;;;22.62;69.05
4836;BME280;66719;51.226;6.902;2023-07-08T07:34:09;100850.63;;;22.74;67.49
4836;BME280;66719;51.226;6.902;2023-07-08T07:36:37;100848.38;;;22.95;65.03
4836;BME280;66719;51.226;6.902;2023-07-08T07:39:03;100846.91;;;23.04;64.51
4836;BME280;66719;51.226;6.902;2023-07-08T07:41:30;100842.19;;;22.95;64.87
4836;BME280;66719;51.226;6.902;2023-07-08T07:43:56;100849.41;;;22.93;66.88
4836;BME280;66719;51.226;6.902;2023-07-08T07:46:23;100856.91;;;23.00;65.96
4836;BME280;66719;51.226;6.902;2023-07-08T07:48:49;100847.31;;;22.98;65.82
4836;BME280;66719;51.226;6.902;2023-07-08T07:51:16;100849.41;;;22.93;67.08
4836;BME280;66719;51.226;6.902;2023-07-08T07:53:43;100844.84;;;22.95;67.21
4836;BME280;66719;51.226;6.902;2023-07-08T07:56:09;100845.50;;;23.11;65.68
4836;BME280;66719;51.226;6.902;2023-07-08T07:58:36;100846.25;;;23.26;66.45
4836;BME280;66719;51.226;6.902;2023-07-08T08:01:02;100847.94;;;23.27;66.40
4836;BME280;66719;51.226;6.902;2023-07-08T08:03:29;100845.72;;;23.33;65.65
4836;BME280;66719;51.226;6.902;2023-07-08T08:05:56;100837.91;;;23.30;67.06
4836;BME280;66719;51.226;6.902;2023-07-08T08:08:23;100846.69;;;23.20;69.12
4836;BME280;66719;51.226;6.902;2023-07-08T08:10:49;100853.59;;;23.09;70.55
4836;BME280;66719;51.226;6.902;2023-07-08T08:13:16;100849.00;;;22.99;70.87
4836;BME280;66719;51.226;6.902;2023-07-08T08:15:43;100849.75;;;22.88;71.23
4836;BME280;66719;51.226;6.902;2023-07-08T08:18:09;100850.59;;;22.89;72.35
4836;BME280;66719;51.226;6.902;2023-07-08T08:20:36;100845.25;;;22.89;73.32
4836;BME280;66719;51.226;6.902;2023-07-08T08:23:02;100861.97;;;23.05;72.66
4836;BME280;66719;51.226;6.902;2023-07-08T08:25:29;100864.84;;;23.27;69.45
4836;BME280;66719;51.226;6.902;2023-07-08T08:27:55;100865.28;;;23.34;69.61
4836;BME280;66719;51.226;6.902;2023-07-08T08:30:22;100865.06;;;23.24;69.87
4836;BME280;66719;51.226;6.902;2023-07-08T08:32:49;100864.00;;;23.14;69.98
4836;BME280;66719;51.226;6.902;2023-07-08T08:35:16;100866.78;;;23.38;67.47
4836;BME280;66719;51.226;6.902;2023-07-08T08:37:42;100859.19;;;23.45;66.42
4836;BME280;66719;51.226;6.902;2023-07-08T08:40:14;100863.19;;;23.64;65.00
4836;BME280;66719;51.226;6.902;2023-07-08T08:43:09;100871.59;;;23.84;63.24
4836;BME280;66719;51.226;6.902;2023-07-08T08:45:36;100875.00;;;23.86;63.25
4836;BME280;66719;51.226;6.902;2023-07-08T08:48:10;100877.75;;;24.10;61.38
4836;BME280;66719;51.226;6.902;2023-07-08T08:50:44;100869.94;;;24.07;62.46
4836;BME280;66719;51.226;6.902;2023-07-08T08:53:16;100863.81;;;24.05;61.92
4836;BME280;66719;51.226;6.902;2023-07-08T08:55:46;100870.19;;;23.91;63.68
4836;BME280;66719;51.226;6.902;2023-07-08T09:01:08;100859.44;;;24.04;63.49
4836;BME280;66719;51.226;6.902;2023-07-08T09:03:57;100859.78;;;23.99;63.04
4836;BME280;66719;51.226;6.902;2023-07-08T09:06:27;100869.66;;;23.99;62.33
4836;BME280;66719;51.226;6.902;2023-07-08T09:08:56;100877.13;;;23.93;63.49
4836;BME280;66719;51.226;6.902;2023-07-08T09:11:34;100871.13;;;24.03;63.10
4836;BME280;66719;51.226;6.902;2023-07-08T09:14:03;100857.13;;;23.99;63.14
4836;BME280;66719;51.226;6.902;2023-07-08T09:16:47;100867.16;;;23.95;63.59
4836;BME280;66719;51.226;6.902;2023-07-08T09:19:30;100857.13;;;23.99;63.38
4836;BME280;66719;51.226;6.902;2023-07-08T09:22:18;100870.50;;;24.23;62.71
4836;BME280;66719;51.226;6.902;2023-07-08T09:27:19;100872.63;;;24.31;63.14
4836;BME280;66719;51.226;6.902;2023-07-08T09:29:46;100870.13;;;24.16;66.16
4836;BME280;66719;51.226;6.902;2023-07-08T09:32:22;100868.41;;;24.52;63.82
4836;BME280;66719;51.226;6.902;2023-07-08T09:35:03;100876.53;;;24.74;62.21
4836;BME280;66719;51.226;6.902;2023-07-08T09:37:32;100873.22;;;24.95;60.19
4836;BME280;66719;51.226;6.902;2023-07-08T09:40:01;100873.66;;;25.24;59.19
4836;BME280;66719;51.226;6.902;2023-07-08T09:42:32;100875.84;;;25.19;58.85
4836;BME280;66719;51.226;6.902;2023-07-08T09:45:03;100872.56;;;25.26;58.73
4836;BME280;66719;51.226;6.902;2023-07-08T09:47:37;100862.16;;;25.11;59.80
4836;BME280;66719;51.226;6.902;2023-07-08T09:50:17;100870.88;;;25.01;60.38
4836;BME280;66719;51.226;6.902;2023-07-08T09:52:46;100873.22;;;24.95;60.27
4836;BME280;66719;51.226;6.902;2023-07-08T09:55:14;100869.00;;;25.03;61.23
4836;BME280;66719;51.226;6.902;2023-07-08T09:57:43;100873.19;;;25.30;57.63
4836;BME280;66719;51.226;6.902;2023-07-08T10:00:19;100859.06;;;25.61;56.94
4836;BME280;66719;51.226;6.902;2023-07-08T10:02:56;100855.69;;;25.71;56.60
4836;BME280;66719;51.226;6.902;2023-07-08T10:05:43;100864.22;;;25.64;57.30
4836;BME280;66719;51.226;6.902;2023-07-08T10:08:19;100863.44;;;25.62;56.36
4836;BME280;66719;51.226;6.902;2023-07-08T10:11:10;100851.78;;;25.63;56.77
4836;BME280;66719;51.226;6.902;2023-07-08T10:13:41;100848.63;;;25.81;56.54
4836;BME280;66719;51.226;6.902;2023-07-08T10:16:17;100850.16;;;26.06;55.88
4836;BME280;66719;51.226;6.902;2023-07-08T10:18:47;100854.88;;;26.25;55.27
4836;BME280;66719;51.226;6.902;2023-07-08T10:34:59;100832.53;;;25.81;56.98
4836;BME280;66719;51.226;6.902;2023-07-08T10:46:18;100830.00;;;26.11;56.65
4836;BME280;66719;51.226;6.902;2023-07-08T10:54:19;100820.84;;;26.14;56.63
4836;BME280;66719;51.226;6.902;2023-07-08T10:56:55;100829.78;;;26.03;58.81
4836;BME280;66719;51.226;6.902;2023-07-08T11:07:41;100823.59;;;26.35;56.41
4836;BME280;66719;51.226;6.902;2023-07-08T11:10:21;100828.19;;;26.12;56.37
4836;BME280;66719;51.226;6.902;2023-07-08T11:12:57;100825.91;;;26.39;53.76
4836;BME280;66719;51.226;6.902;2023-07-08T11:15:28;100822.47;;;26.37;55.45
4836;BME280;66719;51.226;6.902;2023-07-08T11:18:09;100823.72;;;26.33;55.87
4836;BME280;66719;51.226;6.902;2023-07-08T11:20:49;100819.00;;;26.26;56.04
4836;BME280;66719;51.226;6.902;2023-07-08T11:23:25;100820.69;;;26.38;55.05
4836;BME280;66719;51.226;6.902;2023-07-08T11:26:03;100826.41;;;26.33;56.61
4836;BME280;66719;51.226;6.902;2023-07-08T11:28:33;100822.13;;;26.31;55.80
4836;BME280;66719;51.226;6.902;2023-07-08T11:31:01;100820.78;;;26.36;56.07
4836;BME280;66719;51.226;6.902;2023-07-08T11:33:30;100815.25;;;26.49;56.89
4836;BME280;66719;51.226;6.902;2023-07-08T11:36:02;100815.59;;;26.56;55.68
4836;BME280;66719;51.226;6.902;2023-07-08T11:38:32;100823.28;;;26.60;57.68
4836;BME280;66719;51.226;6.902;2023-07-08T11:41:14;100804.84;;;26.56;55.70
4836;BME280;66719;51.226;6.902;2023-07-08T11:46:29;100808.72;;;26.63;58.55
4836;BME280;66719;51.226;6.902;2023-07-08T11:49:01;100800.66;;;26.63;56.00
4836;BME280;66719;51.226;6.902;2023-07-08T11:51:31;100799.31;;;26.68;55.02
4836;BME280;66719;51.226;6.902;2023-07-08T11:54:09;100807.31;;;26.80;58.23
4836;BME280;66719;51.226;6.902;2023-07-08T11:57:00;100805.84;;;26.75;54.45
4836;BME280;66719;51.226;6.902;2023-07-08T11:59:32;100807.31;;;27.21;52.58
4836;BME280;66719;51.226;6.902;2023-07-08T12:04:34;100799.50;;;27.49;52.00
4836;BME280;66719;51.226;6.902;2023-07-08T12:07:15;100795.69;;;27.92;51.40
4836;BME280;66719;51.226;6.902;2023-07-08T12:10:05;100794.91;;;28.30;56.35
4836;BME280;66719;51.226;6.902;2023-07-08T12:12:35;100798.06;;;28.44;55.91
4836;BME280;66719;51.226;6.902;2023-07-08T12:15:26;100812.06;;;28.87;50.67
4836;BME280;66719;51.226;6.902;2023-07-08T12:18:09;100808.41;;;29.35;48.36
4836;BME280;66719;51.226;6.902;2023-07-08T12:20:37;100804.09;;;29.79;46.92
4836;BME280;66719;51.226;6.902;2023-07-08T12:23:12;100798.00;;;30.22;46.50
4836;BME280;66719;51.226;6.902;2023-07-08T12:25:39;100791.84;;;30.48;48.95
4836;BME280;66719;51.226;6.902;2023-07-08T12:28:05;100790.22;;;30.73;49.15
4836;BME280;66719;51.226;6.902;2023-07-08T12:30:32;100789.25;;;30.82;55.57
4836;BME280;66719;51.226;6.902;2023-07-08T12:33:00;100789.81;;;30.85;54.14
4836;BME280;66719;51.226;6.902;2023-07-08T12:35:32;100799.13;;;30.91;53.60
4836;BME280;66719;51.226;6.902;2023-07-08T12:38:09;100790.59;;;31.21;55.24
4836;BME280;66719;51.226;6.902;2023-07-08T12:40:40;100788.50;;;31.49;46.07
4836;BME280;66719;51.226;6.902;2023-07-08T12:43:10;100780.84;;;31.79;45.54
4836;BME280;66719;51.226;6.902;2023-07-08T12:45:37;100789.88;;;31.96;46.68
4836;BME280;66719;51.226;6.902;2023-07-08T12:48:04;100788.75;;;32.15;47.20
4836;BME280;66719;51.226;6.902;2023-07-08T12:50:30;100784.88;;;32.25;44.53
4836;BME280;66719;51.226;6.902;2023-07-08T12:52:57;100788.13;;;32.45;42.33
4836;BME280;66719;51.226;6.902;2023-07-08T12:55:24;100784.03;;;32.57;41.14
4836;BME280;66719;51.226;6.902;2023-07-08T12:57:52;100787.47;;;32.59;40.40
4836;BME280;66719;51.226;6.902;2023-07-08T13:00:34;100785.72;;;32.75;43.19
4836;BME280;66719;51.226;6.902;2023-07-08T13:03:19;100780.84;;;32.95;41.26
4836;BME280;66719;51.226;6.902;2023-07-08T13:05:49;100793.56;;;33.02;42.69
4836;BME280;66719;51.226;6.902;2023-07-08T13:08:18;100785.72;;;33.07;40.38
4836;BME280;66719;51.226;6.902;2023-07-08T13:10:47;100786.91;;;33.13;38.85
4836;BME280;66719;51.226;6.902;2023-07-08T13:13:32;100790.75;;;33.27;36.12
4836;BME280;66719;51.226;6.902;2023-07-08T13:16:00;100781.91;;;33.41;40.90
4836;BME280;66719;51.226;6.902;2023-07-08T13:18:35;100791.56;;;33.35;38.00
4836;BME280;66719;51.226;6.902;2023-07-08T13:21:04;100783.44;;;33.43;39.64
4836;BME280;66719;51.226;6.902;2023-07-08T13:23:32;100783.38;;;33.52;43.04
4836;BME280;66719;51.226;6.902;2023-07-08T13:25:59;100782.69;;;33.58;43.11
4836;BME280;66719;51.226;6.902;2023-07-08T13:28:36;100789.63;;;33.60;40.22
4836;BME280;66719;51.226;6.902;2023-07-08T13:31:20;100788.50;;;33.55;38.27
4836;BME280;66719;51.226;6.902;2023-07-08T13:33:55;100780.47;;;33.61;39.03
4836;BME280;66719;51.226;6.902;2023-07-08T13:36:25;100784.53;;;33.65;38.43
4836;BME280;66719;51.226;6.902;2023-07-08T13:38:56;100793.78;;;33.79;40.11
4836;BME280;66719;51.226;6.902;2023-07-08T13:41:23;100786.69;;;33.70;38.93
4836;BME280;66719;51.226;6.902;2023-07-08T13:43:50;100789.97;;;33.65;40.99
4836;BME280;66719;51.226;6.902;2023-07-08T13:52:19;100787.09;;;33.59;38.71
4836;BME280;66719;51.226;6.902;2023-07-08T13:54:53;100792.41;;;33.44;37.65
4836;BME280;66719;51.226;6.902;2023-07-08T13:57:31;100793.41;;;33.51;40.09
4836;BME280;66719;51.226;6.902;2023-07-08T13:59:58;100792.56;;;33.51;37.33
4836;BME280;66719;51.226;6.902;2023-07-08T14:02:29;100786.28;;;33.50;39.45
4836;BME280;66719;51.226;6.902;2023-07-08T14:04:57;100782.75;;;33.41;39.94
4836;BME280;66719;51.226;6.902;2023-07-08T14:07:27;100790.94;;;33.17;38.58
4836;BME280;66719;51.226;6.902;2023-07-08T14:09:54;100789.63;;;33.05;38.48